createdAt,value
2019-04-19T00:00:08.537Z,822.27
2019-04-19T00:01:08.866Z,822.26
2019-04-19T00:02:08.086Z,822.29
2019-04-19T00:03:04.473Z,822.29
2019-04-19T00:04:11.094Z,822.30
2019-04-19T00:05:05.254Z,822.31
2019-04-19T00:06:13.749Z,822.30
2019-04-19T00:07:11.102Z,822.31
2019-04-19T00:08:23.143Z,822.30
2019-04-19T00:09:21.507Z,822.29
2019-04-19T00:10:19.920Z,822.26
2019-04-19T00:11:15.329Z,822.28
2019-04-19T00:12:20.825Z,822.30
2019-04-19T00:13:06.140Z,822.29
2019-04-19T00:14:04.400Z,822.30
2019-04-19T00:15:05.544Z,822.27
2019-04-19T00:16:04.670Z,822.29
2019-04-19T00:17:06.263Z,822.28
2019-04-19T00:18:08.006Z,822.28
2019-04-19T00:19:28.947Z,822.30
2019-04-19T00:20:25.542Z,822.32
2019-04-19T00:21:18.316Z,822.31
2019-04-19T00:22:24.928Z,822.32
2019-04-19T00:23:15.467Z,822.29
2019-04-19T00:24:04.295Z,822.30
2019-04-19T00:25:04.840Z,822.30
2019-04-19T00:26:04.332Z,822.26
2019-04-19T00:27:05.791Z,822.33
2019-04-19T00:28:05.542Z,822.28
2019-04-19T00:29:07.665Z,822.29
2019-04-19T00:30:18.037Z,822.31
2019-04-19T00:31:22.717Z,822.28
2019-04-19T00:32:23.159Z,822.25
2019-04-19T00:33:14.397Z,822.31
2019-04-19T00:34:04.458Z,822.30
2019-04-19T00:35:05.387Z,822.34
2019-04-19T00:36:05.164Z,822.28
2019-04-19T00:37:05.642Z,822.30
2019-04-19T00:38:10.337Z,822.34
2019-04-19T00:39:24.374Z,822.32
2019-04-19T00:40:21.227Z,822.27
2019-04-19T00:41:24.128Z,822.31
2019-04-19T00:42:20.834Z,822.28
2019-04-19T00:43:18.761Z,822.28
2019-04-19T00:44:22.250Z,822.31
2019-04-19T00:45:23.738Z,822.27
2019-04-19T00:46:20.855Z,822.27
2019-04-19T00:47:25.968Z,822.28
2019-04-19T00:48:24.611Z,822.24
2019-04-19T00:49:15.974Z,822.24
2019-04-19T00:50:16.107Z,822.25
2019-04-19T00:51:15.226Z,822.28
2019-04-19T00:52:17.443Z,822.23
2019-04-19T00:53:20.889Z,822.25
2019-04-19T00:54:12.794Z,822.23
2019-04-19T00:55:12.899Z,822.25
2019-04-19T00:56:13.289Z,822.26
2019-04-19T00:57:14.677Z,822.25
2019-04-19T00:58:12.514Z,822.25
2019-04-19T00:59:08.474Z,822.23
2019-04-19T01:00:04.735Z,822.22
2019-04-19T01:01:11.541Z,822.23
2019-04-19T01:02:10.178Z,822.23
2019-04-19T01:03:04.771Z,822.27
2019-04-19T01:04:11.848Z,822.25
2019-04-19T01:05:10.540Z,822.25
2019-04-19T01:06:08.913Z,822.27
2019-04-19T01:07:06.813Z,822.28
2019-04-19T01:08:07.317Z,822.24
2019-04-19T01:09:21.474Z,822.23
2019-04-19T01:10:18.988Z,822.26
2019-04-19T01:11:18.012Z,822.28
2019-04-19T01:12:17.613Z,822.25
2019-04-19T01:13:16.070Z,822.21
2019-04-19T01:14:17.163Z,822.21
2019-04-19T01:15:16.492Z,822.22
2019-04-19T01:16:17.085Z,822.22
2019-04-19T01:17:17.549Z,822.22
2019-04-19T01:18:21.316Z,822.20
2019-04-19T01:19:09.073Z,822.20
2019-04-19T01:20:07.466Z,822.18
2019-04-19T01:21:05.130Z,822.16
2019-04-19T01:22:11.826Z,822.17
2019-04-19T01:23:10.175Z,822.20
2019-04-19T01:24:06.527Z,822.18
2019-04-19T01:25:13.982Z,822.21
2019-04-19T01:26:08.674Z,822.18
2019-04-19T01:27:05.053Z,822.22
2019-04-19T01:28:11.377Z,822.25
2019-04-19T01:29:09.480Z,822.26
2019-04-19T01:30:06.172Z,822.25
2019-04-19T01:31:11.397Z,822.25
2019-04-19T01:32:09.713Z,822.27
2019-04-19T01:33:05.795Z,822.25
2019-04-19T01:34:12.034Z,822.24
2019-04-19T01:35:10.166Z,822.26
2019-04-19T01:36:06.372Z,822.26
2019-04-19T01:37:11.247Z,822.22
2019-04-19T01:38:08.301Z,822.21
2019-04-19T01:39:23.136Z,822.20
2019-04-19T01:40:21.506Z,822.22
2019-04-19T01:41:20.551Z,822.23
2019-04-19T01:42:24.726Z,822.24
2019-04-19T01:43:25.929Z,822.20
2019-04-19T01:44:29.071Z,822.25
2019-04-19T01:45:24.035Z,822.21
2019-04-19T01:46:17.408Z,822.23
2019-04-19T01:47:27.861Z,822.21
2019-04-19T01:48:27.043Z,822.22
2019-04-19T01:49:16.160Z,822.25
2019-04-19T01:50:15.239Z,822.19
2019-04-19T01:51:21.368Z,822.19
2019-04-19T01:52:31.531Z,822.20
2019-04-19T01:53:26.784Z,822.20
2019-04-19T01:54:23.561Z,822.20
2019-04-19T01:55:14.961Z,822.21
2019-04-19T01:56:10.352Z,822.17
2019-04-19T01:57:08.617Z,822.19
2019-04-19T01:58:10.749Z,822.13
2019-04-19T01:59:06.782Z,822.17
2019-04-19T02:00:07.541Z,822.16
2019-04-19T02:01:12.391Z,822.21
2019-04-19T02:02:09.468Z,822.21
2019-04-19T02:03:07.853Z,822.22
2019-04-19T02:04:12.255Z,822.20
2019-04-19T02:05:11.631Z,822.23
2019-04-19T02:06:09.473Z,822.20
2019-04-19T02:07:12.552Z,822.23
2019-04-19T02:08:09.662Z,822.22
2019-04-19T02:09:05.540Z,822.23
2019-04-19T02:10:15.339Z,822.23
2019-04-19T02:11:19.013Z,822.25
2019-04-19T02:12:23.669Z,822.28
2019-04-19T02:13:16.817Z,822.25
2019-04-19T02:14:12.078Z,822.24
2019-04-19T02:15:11.364Z,822.25
2019-04-19T02:16:10.179Z,822.25
2019-04-19T02:17:09.755Z,822.24
2019-04-19T02:18:05.650Z,822.27
2019-04-19T02:19:11.701Z,822.27
2019-04-19T02:20:08.623Z,822.27
2019-04-19T02:21:06.736Z,822.23
2019-04-19T02:22:10.691Z,822.27
2019-04-19T02:23:09.767Z,822.24
2019-04-19T02:24:07.170Z,822.24
2019-04-19T02:25:12.669Z,822.22
2019-04-19T02:26:10.633Z,822.25
2019-04-19T02:27:09.659Z,822.24
2019-04-19T02:28:09.007Z,822.24
2019-04-19T02:29:11.198Z,822.21
2019-04-19T02:30:16.838Z,822.25
2019-04-19T02:31:29.297Z,822.21
2019-04-19T02:32:22.240Z,822.23
2019-04-19T02:33:35.127Z,822.25
2019-04-19T02:34:33.812Z,822.24
2019-04-19T02:35:33.027Z,822.27
2019-04-19T02:36:36.039Z,822.26
2019-04-19T02:37:46.784Z,822.27
2019-04-19T02:38:39.582Z,822.29
2019-04-19T02:39:38.469Z,822.25
2019-04-19T02:41:36.055Z,822.29
2019-04-19T02:42:47.365Z,822.28
2019-04-19T02:43:47.345Z,822.29
2019-04-19T02:44:38.468Z,822.26
2019-04-19T02:45:30.035Z,822.26
2019-04-19T02:48:40.131Z,822.30
2019-04-19T02:50:56.891Z,822.30
2019-04-19T02:51:33.142Z,822.34
2019-04-19T02:52:40.728Z,822.33
2019-04-19T02:53:29.602Z,822.34
2019-04-19T02:54:38.204Z,822.33
2019-04-19T02:55:29.565Z,822.32
2019-04-19T02:56:46.851Z,822.34
2019-04-19T02:58:34.026Z,822.37
2019-04-19T02:59:39.221Z,822.32
2019-04-19T03:00:39.678Z,822.34
2019-04-19T03:01:38.680Z,822.32
2019-04-19T03:02:42.256Z,822.34
2019-04-19T03:03:39.472Z,822.31
2019-04-19T03:04:45.941Z,822.35
2019-04-19T03:06:21.579Z,822.33
2019-04-19T03:07:09.172Z,822.36
2019-04-19T03:08:06.349Z,822.33
2019-04-19T03:09:07.242Z,822.37
2019-04-19T03:10:12.936Z,822.39
2019-04-19T03:11:19.811Z,822.37
2019-04-19T03:12:29.083Z,822.41
2019-04-19T03:13:22.732Z,822.38
2019-04-19T03:14:16.424Z,822.39
2019-04-19T03:15:20.251Z,822.40
2019-04-19T03:16:25.283Z,822.36
2019-04-19T03:17:23.266Z,822.36
2019-04-19T03:18:45.408Z,822.35
2019-04-19T03:19:18.315Z,822.38
2019-04-19T03:20:23.199Z,822.36
2019-04-19T03:21:29.642Z,822.38
2019-04-19T03:22:23.492Z,822.41
2019-04-19T03:23:17.949Z,822.41
2019-04-19T03:24:19.145Z,822.39
2019-04-19T03:25:18.210Z,822.43
2019-04-19T03:26:26.772Z,822.38
2019-04-19T03:27:15.328Z,822.42
2019-04-19T03:28:18.503Z,822.40
2019-04-19T03:29:14.850Z,822.37
2019-04-19T03:30:27.520Z,822.40
2019-04-19T03:31:37.959Z,822.39
2019-04-19T03:32:50.083Z,822.37
2019-04-19T03:33:39.768Z,822.37
2019-04-19T03:34:48.858Z,822.37
2019-04-19T03:35:19.614Z,822.38
2019-04-19T03:36:24.893Z,822.41
2019-04-19T03:37:27.739Z,822.39
2019-04-19T03:38:26.426Z,822.38
2019-04-19T03:39:44.278Z,822.39
2019-04-19T03:40:40.055Z,822.40
2019-04-19T03:41:40.558Z,822.42
2019-04-19T03:42:27.226Z,822.40
2019-04-19T03:43:31.418Z,822.43
2019-04-19T03:44:23.469Z,822.41
2019-04-19T03:45:24.364Z,822.42
2019-04-19T03:46:18.799Z,822.44
2019-04-19T03:47:29.397Z,822.42
2019-04-19T03:48:27.255Z,822.45
2019-04-19T03:49:34.012Z,822.46
2019-04-19T03:50:26.461Z,822.45
2019-04-19T03:51:25.188Z,822.47
2019-04-19T03:52:25.913Z,822.45
2019-04-19T03:53:31.029Z,822.45
2019-04-19T03:54:23.628Z,822.39
2019-04-19T03:55:25.987Z,822.43
2019-04-19T03:56:22.179Z,822.44
2019-04-19T03:57:18.393Z,822.44
2019-04-19T03:58:12.354Z,822.43
2019-04-19T03:59:07.300Z,822.45
2019-04-19T04:00:07.063Z,822.48
2019-04-19T04:01:06.833Z,822.44
2019-04-19T04:02:07.813Z,822.46
2019-04-19T04:03:13.834Z,822.50
2019-04-19T04:04:14.670Z,822.50
2019-04-19T04:05:09.722Z,822.49
2019-04-19T04:06:06.832Z,822.48
2019-04-19T04:07:12.330Z,822.56
2019-04-19T04:08:10.212Z,822.53
2019-04-19T04:09:09.419Z,822.55
2019-04-19T04:10:08.079Z,822.58
2019-04-19T04:11:12.597Z,822.55
2019-04-19T04:12:20.996Z,822.55
2019-04-19T04:13:22.572Z,822.58
2019-04-19T04:14:19.200Z,822.58
2019-04-19T04:15:17.766Z,822.56
2019-04-19T04:16:19.539Z,822.59
2019-04-19T04:17:07.951Z,822.61
2019-04-19T04:18:06.961Z,822.59
2019-04-19T04:19:08.272Z,822.58
2019-04-19T04:20:07.394Z,822.61
2019-04-19T04:21:07.563Z,822.64
2019-04-19T04:22:16.779Z,822.61
2019-04-19T04:23:10.503Z,822.63
2019-04-19T04:24:17.461Z,822.67
2019-04-19T04:25:15.225Z,822.65
2019-04-19T04:26:14.015Z,822.63
2019-04-19T04:27:14.611Z,822.67
2019-04-19T04:28:23.507Z,822.68
2019-04-19T04:29:16.679Z,822.68
2019-04-19T04:30:17.609Z,822.66
2019-04-19T04:31:18.638Z,822.71
2019-04-19T04:32:17.294Z,822.70
2019-04-19T04:33:21.597Z,822.71
2019-04-19T04:34:25.576Z,822.68
2019-04-19T04:35:19.964Z,822.69
2019-04-19T04:36:25.209Z,822.72
2019-04-19T04:37:24.880Z,822.69
2019-04-19T04:38:16.863Z,822.73
2019-04-19T04:39:07.396Z,822.70
2019-04-19T04:40:08.347Z,822.73
2019-04-19T04:41:15.545Z,822.71
2019-04-19T04:42:19.504Z,822.75
2019-04-19T04:43:20.349Z,822.72
2019-04-19T04:44:21.950Z,822.76
2019-04-19T04:45:30.083Z,822.72
2019-04-19T04:46:32.512Z,822.79
2019-04-19T04:47:24.307Z,822.75
2019-04-19T04:48:29.388Z,822.83
2019-04-19T04:49:38.328Z,822.79
2019-04-19T04:50:34.097Z,822.81
2019-04-19T04:51:26.213Z,822.81
2019-04-19T04:52:17.886Z,822.85
2019-04-19T04:53:07.340Z,822.89
2019-04-19T04:54:08.164Z,822.87
2019-04-19T04:55:07.344Z,822.84
2019-04-19T04:56:10.126Z,822.88
2019-04-19T04:57:13.915Z,822.91
2019-04-19T04:58:16.292Z,822.91
2019-04-19T04:59:13.124Z,822.91
2019-04-19T05:00:07.924Z,822.92
2019-04-19T05:01:13.515Z,822.94
2019-04-19T05:02:21.723Z,822.92
2019-04-19T05:03:29.283Z,822.98
2019-04-19T05:04:20.067Z,822.97
2019-04-19T05:05:26.105Z,823.01
2019-04-19T05:06:28.148Z,822.99
2019-04-19T05:07:28.387Z,822.99
2019-04-19T05:08:24.592Z,823.01
2019-04-19T05:09:28.023Z,823.00
2019-04-19T05:10:25.870Z,822.99
2019-04-19T05:11:28.195Z,823.02
2019-04-19T05:12:36.519Z,823.04
2019-04-19T05:13:22.082Z,823.08
2019-04-19T05:14:28.304Z,823.02
2019-04-19T05:15:29.947Z,823.08
2019-04-19T05:16:35.508Z,823.09
2019-04-19T05:17:43.991Z,823.10
2019-04-19T05:18:29.417Z,823.14
2019-04-19T05:19:26.968Z,823.11
2019-04-19T05:20:22.732Z,823.12
2019-04-19T05:21:29.522Z,823.16
2019-04-19T05:22:22.118Z,823.14
2019-04-19T05:23:22.195Z,823.15
2019-04-19T05:24:25.527Z,823.21
2019-04-19T05:25:31.382Z,823.15
2019-04-19T05:27:30.232Z,823.18
2019-04-19T05:28:27.570Z,823.20
2019-04-19T05:29:19.804Z,823.21
2019-04-19T05:30:09.019Z,823.22
2019-04-19T05:31:12.283Z,823.22
2019-04-19T05:32:17.643Z,823.25
2019-04-19T05:33:18.061Z,823.23
2019-04-19T05:34:25.910Z,823.23
2019-04-19T05:35:19.360Z,823.24
2019-04-19T05:36:27.539Z,823.27
2019-04-19T05:37:17.361Z,823.29
2019-04-19T05:38:35.315Z,823.29
2019-04-19T05:39:35.905Z,823.29
2019-04-19T05:40:22.752Z,823.23
2019-04-19T05:41:19.144Z,823.26
2019-04-19T05:42:27.682Z,823.25
2019-04-19T05:43:48.690Z,823.25
2019-04-19T05:45:36.673Z,823.31
2019-04-19T05:46:31.832Z,823.34
2019-04-19T05:47:23.903Z,823.33
2019-04-19T05:48:21.992Z,823.32
2019-04-19T05:49:25.340Z,823.31
2019-04-19T05:50:34.102Z,823.31
2019-04-19T05:51:33.931Z,823.35
2019-04-19T05:52:30.091Z,823.32
2019-04-19T05:53:16.713Z,823.31
2019-04-19T05:54:11.548Z,823.37
2019-04-19T05:55:09.897Z,823.31
2019-04-19T05:56:09.046Z,823.36
2019-04-19T05:57:28.125Z,823.34
2019-04-19T05:58:16.558Z,823.33
2019-04-19T05:59:14.991Z,823.38
2019-04-19T06:00:20.689Z,823.39
2019-04-19T06:01:27.756Z,823.37
2019-04-19T06:02:17.946Z,823.41
2019-04-19T06:03:17.667Z,823.43
2019-04-19T06:04:29.012Z,823.39
2019-04-19T06:05:28.657Z,823.40
2019-04-19T06:06:35.959Z,823.44
2019-04-19T06:07:22.816Z,823.46
2019-04-19T06:08:18.343Z,823.45
2019-04-19T06:09:09.144Z,823.49
2019-04-19T06:10:10.987Z,823.44
2019-04-19T06:11:09.528Z,823.51
2019-04-19T06:12:12.428Z,823.49
2019-04-19T06:13:11.928Z,823.51
2019-04-19T06:14:33.792Z,823.48
2019-04-19T06:15:33.956Z,823.53
2019-04-19T06:16:26.129Z,823.50
2019-04-19T06:17:26.902Z,823.52
2019-04-19T06:18:24.570Z,823.51
2019-04-19T06:19:28.440Z,823.50
2019-04-19T06:20:26.140Z,823.52
2019-04-19T06:21:31.198Z,823.49
2019-04-19T06:22:28.699Z,823.51
2019-04-19T06:23:29.619Z,823.46
2019-04-19T06:24:28.997Z,823.48
2019-04-19T06:25:35.185Z,823.51
2019-04-19T06:27:38.149Z,823.52
2019-04-19T06:28:30.299Z,823.53
2019-04-19T06:29:31.416Z,823.55
2019-04-19T06:30:27.320Z,823.51
2019-04-19T06:31:46.097Z,823.51
2019-04-19T06:32:36.222Z,823.54
2019-04-19T06:33:28.178Z,823.52
2019-04-19T06:34:24.708Z,823.54
2019-04-19T06:35:22.554Z,823.56
2019-04-19T06:36:11.194Z,823.55
2019-04-19T06:37:15.304Z,823.52
2019-04-19T06:38:09.491Z,823.54
2019-04-19T06:39:09.768Z,823.56
2019-04-19T06:40:16.399Z,823.52
2019-04-19T06:41:13.564Z,823.55
2019-04-19T06:42:11.738Z,823.54
2019-04-19T06:43:14.210Z,823.54
2019-04-19T06:44:16.899Z,823.55
2019-04-19T06:45:29.401Z,823.53
2019-04-19T06:46:23.479Z,823.55
2019-04-19T06:47:18.987Z,823.53
2019-04-19T06:48:14.402Z,823.53
2019-04-19T06:49:16.074Z,823.57
2019-04-19T06:50:08.875Z,823.55
2019-04-19T06:51:17.392Z,823.57
2019-04-19T06:52:15.854Z,823.55
2019-04-19T06:53:08.569Z,823.54
2019-04-19T06:54:11.913Z,823.57
2019-04-19T06:55:17.451Z,823.56
2019-04-19T06:56:17.118Z,823.56
2019-04-19T06:57:16.546Z,823.58
2019-04-19T06:58:15.947Z,823.57
2019-04-19T06:59:17.880Z,823.53
2019-04-19T07:00:21.560Z,823.57
2019-04-19T07:01:21.733Z,823.57
2019-04-19T07:02:09.262Z,823.59
2019-04-19T07:03:10.868Z,823.58
2019-04-19T07:04:08.691Z,823.60
2019-04-19T07:05:23.081Z,823.61
2019-04-19T07:06:25.315Z,823.65
2019-04-19T07:07:27.303Z,823.65
2019-04-19T07:08:48.776Z,823.64
2019-04-19T07:09:32.269Z,823.65
2019-04-19T07:10:39.621Z,823.65
2019-04-19T07:11:33.243Z,823.61
2019-04-19T07:12:31.515Z,823.59
2019-04-19T07:13:21.538Z,823.61
2019-04-19T07:14:14.573Z,823.64
2019-04-19T07:15:36.703Z,823.64
2019-04-19T07:16:31.561Z,823.66
2019-04-19T07:17:28.963Z,823.65
2019-04-19T07:18:24.928Z,823.65
2019-04-19T07:19:33.120Z,823.68
2019-04-19T07:20:24.250Z,823.68
2019-04-19T07:21:29.040Z,823.70
2019-04-19T07:22:22.874Z,823.68
2019-04-19T07:23:28.157Z,823.69
2019-04-19T07:24:33.673Z,823.67
2019-04-19T07:25:36.847Z,823.70
2019-04-19T07:26:26.969Z,823.72
2019-04-19T07:27:24.814Z,823.70
2019-04-19T07:28:16.523Z,823.75
2019-04-19T07:29:09.000Z,823.72
2019-04-19T07:30:10.223Z,823.74
2019-04-19T07:31:11.406Z,823.72
2019-04-19T07:32:10.234Z,823.78
2019-04-19T07:33:15.776Z,823.77
2019-04-19T07:34:22.188Z,823.75
2019-04-19T07:35:31.811Z,823.75
2019-04-19T07:36:31.998Z,823.81
2019-04-19T07:37:26.035Z,823.80
2019-04-19T07:38:28.336Z,823.78
2019-04-19T07:39:25.624Z,823.78
2019-04-19T07:40:30.737Z,823.82
2019-04-19T07:41:26.712Z,823.81
2019-04-19T07:42:32.023Z,823.83
2019-04-19T07:43:25.767Z,823.84
2019-04-19T07:44:23.428Z,823.85
2019-04-19T07:45:13.523Z,823.87
2019-04-19T07:46:29.448Z,823.84
2019-04-19T07:47:17.912Z,823.90
2019-04-19T07:48:13.590Z,823.90
2019-04-19T07:49:11.056Z,823.93
2019-04-19T07:50:16.946Z,823.91
2019-04-19T07:51:14.988Z,823.95
2019-04-19T07:52:19.042Z,823.86
2019-04-19T07:53:10.180Z,823.92
2019-04-19T07:54:15.100Z,823.92
2019-04-19T07:55:13.034Z,823.93
2019-04-19T07:56:21.931Z,823.92
2019-04-19T07:57:42.189Z,823.94
2019-04-19T07:59:34.451Z,823.96
2019-04-19T08:01:00.723Z,823.96
2019-04-19T08:02:48.686Z,824.00
2019-04-19T08:04:48.543Z,823.97
2019-04-19T08:05:35.092Z,824.01
2019-04-19T08:07:01.728Z,823.98
2019-04-19T08:08:01.225Z,823.97
2019-04-19T08:09:34.598Z,824.02
2019-04-19T08:10:47.013Z,824.01
2019-04-19T08:11:58.636Z,824.02
2019-04-19T08:13:44.350Z,824.06
2019-04-19T08:15:38.859Z,824.09
2019-04-19T08:17:10.481Z,824.09
2019-04-19T08:28:20.417Z,824.22
2019-04-19T08:29:22.131Z,824.21
2019-04-19T08:30:16.401Z,824.16
2019-04-19T08:31:11.957Z,824.19
2019-04-19T08:32:10.812Z,824.21
2019-04-19T08:33:10.578Z,824.19
2019-04-19T08:34:14.480Z,824.22
2019-04-19T08:35:14.935Z,824.21
2019-04-19T08:36:11.447Z,824.28
2019-04-19T08:37:18.727Z,824.27
2019-04-19T08:38:17.509Z,824.22
2019-04-19T08:39:30.223Z,824.23
2019-04-19T08:40:29.270Z,824.21
2019-04-19T08:41:18.565Z,824.21
2019-04-19T08:42:30.979Z,824.21
2019-04-19T08:43:25.095Z,824.21
2019-04-19T08:44:21.835Z,824.25
2019-04-19T08:45:14.269Z,824.26
2019-04-19T08:46:11.111Z,824.24
2019-04-19T08:47:21.806Z,824.22
2019-04-19T08:48:17.915Z,824.22
2019-04-19T08:49:13.772Z,824.28
2019-04-19T08:50:12.558Z,824.29
2019-04-19T08:51:10.118Z,824.29
2019-04-19T08:52:12.929Z,824.24
2019-04-19T08:53:28.168Z,824.25
2019-04-19T08:54:33.606Z,824.26
2019-04-19T08:55:30.476Z,824.27
2019-04-19T08:56:23.699Z,824.25
2019-04-19T08:57:15.629Z,824.24
2019-04-19T08:58:23.874Z,824.32
2019-04-19T08:59:36.248Z,824.29
2019-04-19T09:00:40.815Z,824.27
2019-04-19T09:01:34.814Z,824.31
2019-04-19T09:02:29.052Z,824.33
2019-04-19T09:03:35.663Z,824.36
2019-04-19T09:04:31.720Z,824.32
2019-04-19T09:05:28.018Z,824.36
2019-04-19T09:07:08.353Z,824.37
2019-04-19T09:08:29.552Z,824.37
2019-04-19T09:09:30.610Z,824.37
2019-04-19T09:11:26.973Z,824.39
2019-04-19T09:12:25.430Z,824.38
2019-04-19T09:13:35.308Z,824.41
2019-04-19T09:14:32.840Z,824.37
2019-04-19T09:15:24.236Z,824.38
2019-04-19T09:16:25.611Z,824.38
2019-04-19T09:17:47.502Z,824.40
2019-04-19T09:18:44.222Z,824.42
2019-04-19T09:19:53.700Z,824.43
2019-04-19T09:20:31.726Z,824.39
2019-04-19T09:21:27.396Z,824.38
2019-04-19T09:22:25.508Z,824.36
2019-04-19T09:23:24.809Z,824.38
2019-04-19T09:24:17.085Z,824.39
2019-04-19T09:25:25.488Z,824.32
2019-04-19T09:26:31.404Z,824.36
2019-04-19T09:28:44.873Z,824.36
2019-04-19T09:29:33.634Z,824.37
2019-04-19T09:30:27.665Z,824.39
2019-04-19T09:31:26.304Z,824.42
2019-04-19T09:32:16.733Z,824.43
2019-04-19T09:33:20.052Z,824.37
2019-04-19T09:34:14.081Z,824.36
2019-04-19T09:35:12.755Z,824.37
2019-04-19T09:36:14.216Z,824.38
2019-04-19T09:37:21.219Z,824.40
2019-04-19T09:38:21.460Z,824.41
2019-04-19T09:39:26.286Z,824.37
2019-04-19T09:40:16.098Z,824.38
2019-04-19T09:41:19.365Z,824.40
2019-04-19T09:42:21.383Z,824.41
2019-04-19T09:43:24.230Z,824.42
2019-04-19T09:44:21.764Z,824.38
2019-04-19T09:45:10.545Z,824.40
2019-04-19T09:46:10.561Z,824.40
2019-04-19T09:47:10.587Z,824.36
2019-04-19T09:48:31.604Z,824.33
2019-04-19T09:49:24.915Z,824.32
2019-04-19T09:50:27.193Z,824.35
2019-04-19T09:51:30.187Z,824.27
2019-04-19T09:52:35.622Z,824.32
2019-04-19T09:53:35.622Z,824.37
2019-04-19T09:54:32.574Z,824.40
2019-04-19T09:55:33.107Z,824.31
2019-04-19T09:56:27.499Z,824.36
2019-04-19T09:57:31.346Z,824.38
2019-04-19T09:58:25.282Z,824.35
2019-04-19T09:59:20.599Z,824.32
2019-04-19T10:00:16.529Z,824.23
2019-04-19T10:01:10.752Z,824.23
2019-04-19T10:02:19.400Z,824.24
2019-04-19T10:03:21.861Z,824.28
2019-04-19T10:04:10.980Z,824.27
2019-04-19T10:05:10.804Z,824.30
2019-04-19T10:06:11.082Z,824.29
2019-04-19T10:07:11.259Z,824.28
2019-04-19T10:08:11.571Z,824.30
2019-04-19T10:09:16.594Z,824.27
2019-04-19T10:10:13.035Z,824.28
2019-04-19T10:11:10.888Z,824.23
2019-04-19T10:12:11.273Z,824.27
2019-04-19T10:13:11.957Z,824.25
2019-04-19T10:14:13.265Z,824.22
2019-04-19T10:15:11.816Z,824.25
2019-04-19T10:16:10.950Z,824.27
2019-04-19T10:17:12.284Z,824.24
2019-04-19T10:18:10.979Z,824.25
2019-04-19T10:19:11.536Z,824.25
2019-04-19T10:20:11.004Z,824.28
2019-04-19T10:21:19.099Z,824.30
2019-04-19T10:22:12.283Z,824.35
2019-04-19T10:23:11.294Z,824.33
2019-04-19T10:24:15.031Z,824.28
2019-04-19T10:25:11.408Z,824.30
2019-04-19T10:26:12.696Z,824.29
2019-04-19T10:27:11.097Z,824.31
2019-04-19T10:28:11.927Z,824.29
2019-04-19T10:29:19.770Z,824.29
2019-04-19T10:30:12.068Z,824.29
2019-04-19T10:31:11.462Z,824.26
2019-04-19T10:32:11.159Z,824.28
2019-04-19T10:33:11.175Z,824.29
2019-04-19T10:34:12.283Z,824.27
2019-04-19T10:35:11.531Z,824.23
2019-04-19T10:36:11.212Z,824.29
2019-04-19T10:37:11.224Z,824.31
2019-04-19T10:38:11.695Z,824.32
2019-04-19T10:39:11.898Z,824.30
2019-04-19T10:40:11.268Z,824.24
2019-04-19T10:41:11.610Z,824.33
2019-04-19T10:42:12.290Z,824.34
2019-04-19T10:43:11.516Z,824.28
2019-04-19T10:44:16.572Z,824.22
2019-04-19T10:45:12.210Z,824.26
2019-04-19T10:46:11.353Z,824.23
2019-04-19T10:47:12.459Z,824.23
2019-04-19T10:48:11.779Z,824.26
2019-04-19T10:49:17.188Z,824.29
2019-04-19T10:50:20.501Z,824.30
2019-04-19T10:51:12.269Z,824.26
2019-04-19T10:52:11.437Z,824.30
2019-04-19T10:53:12.378Z,824.29
2019-04-19T10:54:12.640Z,824.24
2019-04-19T10:55:11.481Z,824.25
2019-04-19T10:56:12.143Z,824.30
2019-04-19T10:57:12.490Z,824.27
2019-04-19T10:58:11.699Z,824.26
2019-04-19T10:59:12.054Z,824.25
2019-04-19T11:00:11.549Z,824.22
2019-04-19T11:01:11.569Z,824.23
2019-04-19T11:02:11.585Z,824.28
2019-04-19T11:03:12.716Z,824.30
2019-04-19T11:04:12.939Z,824.27
2019-04-19T11:05:11.627Z,824.28
2019-04-19T11:06:12.563Z,824.29
2019-04-19T11:07:11.771Z,824.22
2019-04-19T11:08:12.722Z,824.29
2019-04-19T11:09:12.305Z,824.26
2019-04-19T11:10:11.995Z,824.24
2019-04-19T11:11:11.801Z,824.23
2019-04-19T11:12:11.729Z,824.22
2019-04-19T11:13:12.811Z,824.17
2019-04-19T11:14:12.235Z,824.19
2019-04-19T11:15:12.885Z,824.18
2019-04-19T11:16:12.206Z,824.22
2019-04-19T11:17:11.804Z,824.22
2019-04-19T11:18:11.881Z,824.13
2019-04-19T11:19:19.315Z,824.22
2019-04-19T11:20:24.018Z,824.16
2019-04-19T11:21:11.863Z,824.23
2019-04-19T11:22:12.005Z,824.23
2019-04-19T11:23:11.891Z,824.19
2019-04-19T11:24:11.905Z,824.22
2019-04-19T11:25:12.240Z,824.24
2019-04-19T11:26:12.669Z,824.22
2019-04-19T11:27:13.207Z,824.20
2019-04-19T11:28:13.100Z,824.16
2019-04-19T11:29:11.981Z,824.16
2019-04-19T11:30:12.974Z,824.12
2019-04-19T11:31:13.245Z,824.14
2019-04-19T11:32:12.296Z,824.25
2019-04-19T11:33:12.827Z,824.23
2019-04-19T11:34:13.127Z,824.21
2019-04-19T11:35:12.065Z,824.19
2019-04-19T11:36:13.042Z,824.16
2019-04-19T11:37:13.643Z,824.16
2019-04-19T11:38:13.265Z,824.20
2019-04-19T11:39:12.744Z,824.28
2019-04-19T11:40:13.166Z,824.29
2019-04-19T11:41:13.340Z,824.31
2019-04-19T11:42:12.924Z,824.24
2019-04-19T11:43:13.455Z,824.26
2019-04-19T11:44:18.215Z,824.28
2019-04-19T11:45:12.205Z,824.18
2019-04-19T11:46:12.223Z,824.22
2019-04-19T11:47:13.277Z,824.22
2019-04-19T11:48:12.990Z,824.17
2019-04-19T11:49:22.872Z,824.21
2019-04-19T11:50:13.684Z,824.21
2019-04-19T11:51:12.306Z,824.20
2019-04-19T11:52:13.815Z,824.23
2019-04-19T11:53:12.320Z,824.27
2019-04-19T11:54:12.549Z,824.24
2019-04-19T11:55:12.691Z,824.25
2019-04-19T11:56:12.365Z,824.24
2019-04-19T11:57:12.449Z,824.24
2019-04-19T11:58:12.578Z,824.28
2019-04-19T11:59:12.410Z,824.27
2019-04-19T12:00:13.636Z,824.24
2019-04-19T12:01:12.449Z,824.27
2019-04-19T12:02:13.361Z,824.26
2019-04-19T12:03:12.463Z,824.27
2019-04-19T12:04:12.479Z,824.27
2019-04-19T12:05:19.517Z,824.30
2019-04-19T12:06:12.507Z,824.30
2019-04-19T12:07:12.610Z,824.26
2019-04-19T12:08:12.721Z,824.25
2019-04-19T12:09:12.703Z,824.24
2019-04-19T12:10:12.564Z,824.28
2019-04-19T12:11:12.775Z,824.24
2019-04-19T12:12:12.907Z,824.29
2019-04-19T12:13:13.055Z,824.29
2019-04-19T12:14:12.621Z,824.35
2019-04-19T12:15:13.802Z,824.31
2019-04-19T12:16:13.019Z,824.30
2019-04-19T12:17:13.279Z,824.31
2019-04-19T12:18:12.686Z,824.33
2019-04-19T12:19:13.732Z,824.33
2019-04-19T12:20:13.188Z,824.33
2019-04-19T12:21:13.485Z,824.30
2019-04-19T12:22:12.951Z,824.32
2019-04-19T12:23:13.827Z,824.32
2019-04-19T12:24:12.910Z,824.30
2019-04-19T12:25:12.782Z,824.29
2019-04-19T12:26:13.754Z,824.33
2019-04-19T12:27:13.767Z,824.29
2019-04-19T12:28:12.830Z,824.29
2019-04-19T12:29:24.351Z,824.28
2019-04-19T12:30:13.613Z,824.31
2019-04-19T12:31:13.678Z,824.33
2019-04-19T12:32:12.887Z,824.27
2019-04-19T12:33:13.280Z,824.25
2019-04-19T12:34:14.506Z,824.25
2019-04-19T12:35:13.109Z,824.28
2019-04-19T12:36:12.947Z,824.26
2019-04-19T12:37:13.365Z,824.26
2019-04-19T12:38:14.330Z,824.26
2019-04-19T12:39:12.989Z,824.24
2019-04-19T12:40:13.008Z,824.20
2019-04-19T12:41:14.220Z,824.22
2019-04-19T12:42:13.534Z,824.23
2019-04-19T12:43:14.030Z,824.25
2019-04-19T12:44:13.333Z,824.24
2019-04-19T12:45:13.550Z,824.23
2019-04-19T12:46:13.094Z,824.24
2019-04-19T12:47:13.150Z,824.21
2019-04-19T12:48:13.980Z,824.24
2019-04-19T12:49:14.393Z,824.23
2019-04-19T12:50:14.761Z,824.19
2019-04-19T12:51:14.156Z,824.19
2019-04-19T12:52:13.182Z,824.13
2019-04-19T12:53:13.197Z,824.19
2019-04-19T12:54:14.123Z,824.20
2019-04-19T12:55:14.343Z,824.22
2019-04-19T12:56:13.958Z,824.21
2019-04-19T12:57:14.051Z,824.18